sensor_id;sensor_type;location;lat;lon;timestamp;pressure;altitude;pressure_sealevel;temperature;humidity
71559;BME280;59382;43.852;25.952;2023-03-03T00:02:08;101657.81;;;7.61;61.84
71559;BME280;59382;43.852;25.952;2023-03-03T00:04:33;101649.75;;;7.61;61.90
71559;BME280;59382;43.852;25.952;2023-03-03T00:06:59;101633.97;;;7.50;61.93
71559;BME280;59382;43.852;25.952;2023-03-03T00:09:24;101640.03;;;7.60;62.03
71559;BME280;59382;43.852;25.952;2023-03-03T00:11:54;101646.72;;;7.64;62.27
71559;BME280;59382;43.852;25.952;2023-03-03T00:14:31;101635.66;;;7.67;62.13
71559;BME280;59382;43.852;25.952;2023-03-03T00:17:00;101638.97;;;7.77;62.11
71559;BME280;59382;43.852;25.952;2023-03-03T00:19:25;101646.03;;;7.86;61.87
71559;BME280;59382;43.852;25.952;2023-03-03T00:21:55;101619.19;;;7.78;61.99
71559;BME280;59382;43.852;25.952;2023-03-03T00:24:36;101633.06;;;7.97;62.08
71559;BME280;59382;43.852;25.952;2023-03-03T00:27:57;101616.78;;;7.91;61.53
71559;BME280;59382;43.852;25.952;2023-03-03T00:30:21;101570.84;;;7.70;61.68
71559;BME280;59382;43.852;25.952;2023-03-03T00:32:48;101627.50;;;8.07;61.58
71559;BME280;59382;43.852;25.952;2023-03-03T00:35:32;101572.16;;;7.74;61.67
71559;BME280;59382;43.852;25.952;2023-03-03T00:38:16;101617.75;;;8.06;61.49
71559;BME280;59382;43.852;25.952;2023-03-03T00:40:43;101594.59;;;7.97;61.36
71559;BME280;59382;43.852;25.952;2023-03-03T00:43:21;101583.56;;;7.84;61.75
71559;BME280;59382;43.852;25.952;2023-03-03T00:45:55;101600.59;;;8.07;61.50
71559;BME280;59382;43.852;25.952;2023-03-03T00:48:25;101600.28;;;8.02;61.26
71559;BME280;59382;43.852;25.952;2023-03-03T00:50:56;101590.94;;;7.90;61.49
71559;BME280;59382;43.852;25.952;2023-03-03T00:53:24;101579.53;;;7.80;61.63
71559;BME280;59382;43.852;25.952;2023-03-03T00:55:51;101591.63;;;7.84;61.63
71559;BME280;59382;43.852;25.952;2023-03-03T00:58:17;101593.31;;;7.85;61.88
71559;BME280;59382;43.852;25.952;2023-03-03T01:00:50;101584.59;;;7.75;62.00
71559;BME280;59382;43.852;25.952;2023-03-03T01:03:21;101590.63;;;7.77;61.84
71559;BME280;59382;43.852;25.952;2023-03-03T01:05:48;101583.25;;;7.71;61.82
71559;BME280;59382;43.852;25.952;2023-03-03T01:08:14;101584.94;;;7.72;61.72
71559;BME280;59382;43.852;25.952;2023-03-03T01:10:47;101567.69;;;7.58;61.78
71559;BME280;59382;43.852;25.952;2023-03-03T01:13:16;101581.94;;;7.67;61.85
71559;BME280;59382;43.852;25.952;2023-03-03T01:15:42;101572.38;;;7.64;62.02
71559;BME280;59382;43.852;25.952;2023-03-03T01:18:09;101574.88;;;7.66;61.76
71559;BME280;59382;43.852;25.952;2023-03-03T01:20:36;101561.13;;;7.61;61.88
71559;BME280;59382;43.852;25.952;2023-03-03T01:23:04;101556.72;;;7.68;61.77
71559;BME280;59382;43.852;25.952;2023-03-03T01:25:30;101561.28;;;7.67;61.94
71559;BME280;59382;43.852;25.952;2023-03-03T01:27:55;101541.34;;;7.54;62.20
71559;BME280;59382;43.852;25.952;2023-03-03T01:30:21;101558.78;;;7.66;62.29
71559;BME280;59382;43.852;25.952;2023-03-03T01:32:47;101556.38;;;7.71;62.33
71559;BME280;59382;43.852;25.952;2023-03-03T01:35:13;101544.66;;;7.64;61.99
71559;BME280;59382;43.852;25.952;2023-03-03T01:37:38;101554.38;;;7.73;62.13
71559;BME280;59382;43.852;25.952;2023-03-03T01:40:16;101545.34;;;7.66;62.26
71559;BME280;59382;43.852;25.952;2023-03-03T01:42:42;101555.22;;;7.73;62.21
71559;BME280;59382;43.852;25.952;2023-03-03T01:50:37;101506.25;;;7.55;61.92
71559;BME280;59382;43.852;25.952;2023-03-03T01:53:32;101534.91;;;7.71;62.04
71559;BME280;59382;43.852;25.952;2023-03-03T01:56:01;101556.69;;;7.84;62.01
71559;BME280;59382;43.852;25.952;2023-03-03T01:58:32;101541.09;;;7.79;61.93
71559;BME280;59382;43.852;25.952;2023-03-03T02:01:10;101553.69;;;7.79;62.16
71559;BME280;59382;43.852;25.952;2023-03-03T02:03:38;101548.31;;;7.79;61.97
71559;BME280;59382;43.852;25.952;2023-03-03T02:06:07;101547.00;;;7.75;62.07
71559;BME280;59382;43.852;25.952;2023-03-03T02:09:17;101551.19;;;7.69;61.98
71559;BME280;59382;43.852;25.952;2023-03-03T02:11:48;101535.59;;;7.65;61.73
71559;BME280;59382;43.852;25.952;2023-03-03T02:14:14;101509.63;;;7.49;62.15
71559;BME280;59382;43.852;25.952;2023-03-03T02:16:42;101517.16;;;7.54;62.55
71559;BME280;59382;43.852;25.952;2023-03-03T02:19:23;101518.16;;;7.53;62.49
71559;BME280;59382;43.852;25.952;2023-03-03T02:21:52;101529.06;;;7.59;62.40
71559;BME280;59382;43.852;25.952;2023-03-03T02:24:26;101524.72;;;7.58;62.49
71559;BME280;59382;43.852;25.952;2023-03-03T02:26:54;101534.94;;;7.63;62.36
71559;BME280;59382;43.852;25.952;2023-03-03T02:29:20;101533.91;;;7.64;62.32
71559;BME280;59382;43.852;25.952;2023-03-03T02:31:45;101514.47;;;7.54;62.36
71559;BME280;59382;43.852;25.952;2023-03-03T02:34:11;101520.50;;;7.64;62.32
71559;BME280;59382;43.852;25.952;2023-03-03T02:36:38;101513.47;;;7.55;62.50
71559;BME280;59382;43.852;25.952;2023-03-03T02:39:10;101527.69;;;7.63;62.36
71559;BME280;59382;43.852;25.952;2023-03-03T02:41:50;101531.91;;;7.66;62.58
71559;BME280;59382;43.852;25.952;2023-03-03T02:44:27;101518.81;;;7.63;62.47
71559;BME280;59382;43.852;25.952;2023-03-03T02:46:55;101519.63;;;7.63;62.29
71559;BME280;59382;43.852;25.952;2023-03-03T02:49:29;101531.06;;;7.65;62.21
71559;BME280;59382;43.852;25.952;2023-03-03T02:51:57;101516.81;;;7.57;62.61
71559;BME280;59382;43.852;25.952;2023-03-03T02:54:25;101528.88;;;7.61;62.42
71559;BME280;59382;43.852;25.952;2023-03-03T02:56:51;101521.84;;;7.60;62.68
71559;BME280;59382;43.852;25.952;2023-03-03T02:59:17;101533.91;;;7.64;62.55
71559;BME280;59382;43.852;25.952;2023-03-03T03:01:43;101524.53;;;7.60;62.43
71559;BME280;59382;43.852;25.952;2023-03-03T03:04:20;101505.22;;;7.56;62.54
71559;BME280;59382;43.852;25.952;2023-03-03T03:06:46;101519.97;;;7.68;62.41
71559;BME280;59382;43.852;25.952;2023-03-03T03:09:13;101509.91;;;7.62;62.37
71559;BME280;59382;43.852;25.952;2023-03-03T03:11:39;101523.34;;;7.70;62.31
71559;BME280;59382;43.852;25.952;2023-03-03T03:14:07;101518.09;;;7.77;62.44
71559;BME280;59382;43.852;25.952;2023-03-03T03:16:33;101516.41;;;7.76;62.33
71559;BME280;59382;43.852;25.952;2023-03-03T03:18:59;101519.78;;;7.78;62.34
71559;BME280;59382;43.852;25.952;2023-03-03T03:21:25;101505.66;;;7.76;62.24
71559;BME280;59382;43.852;25.952;2023-03-03T03:23:51;101500.66;;;7.73;62.36
71559;BME280;59382;43.852;25.952;2023-03-03T03:26:16;101510.69;;;7.79;62.36
71559;BME280;59382;43.852;25.952;2023-03-03T03:28:42;101463.47;;;7.54;62.15
71559;BME280;59382;43.852;25.952;2023-03-03T03:31:08;101507.34;;;7.77;62.13
71559;BME280;59382;43.852;25.952;2023-03-03T03:33:35;101488.94;;;7.66;62.34
71559;BME280;59382;43.852;25.952;2023-03-03T03:36:00;101480.19;;;7.64;62.42
71559;BME280;59382;43.852;25.952;2023-03-03T03:38:26;101496.59;;;7.77;62.30
71559;BME280;59382;43.852;25.952;2023-03-03T03:40:54;101491.22;;;7.77;62.22
71559;BME280;59382;43.852;25.952;2023-03-03T03:43:20;101502.81;;;7.77;62.59
71559;BME280;59382;43.852;25.952;2023-03-03T03:45:49;101498.75;;;7.81;62.38
71559;BME280;59382;43.852;25.952;2023-03-03T03:48:14;101502.97;;;7.84;62.38
71559;BME280;59382;43.852;25.952;2023-03-03T03:50:41;101490.16;;;7.86;62.30
71559;BME280;59382;43.852;25.952;2023-03-03T03:53:06;101486.50;;;7.79;62.25
71559;BME280;59382;43.852;25.952;2023-03-03T03:55:32;101492.91;;;7.78;62.43
71559;BME280;59382;43.852;25.952;2023-03-03T03:57:58;101496.94;;;7.74;62.68
71559;BME280;59382;43.852;25.952;2023-03-03T04:00:26;101505.66;;;7.76;62.54
71559;BME280;59382;43.852;25.952;2023-03-03T04:02:54;101498.97;;;7.72;62.47
71559;BME280;59382;43.852;25.952;2023-03-03T04:05:20;101479.22;;;7.57;62.64
71559;BME280;59382;43.852;25.952;2023-03-03T04:07:45;101488.09;;;7.57;62.65
71559;BME280;59382;43.852;25.952;2023-03-03T04:10:11;101495.97;;;7.67;62.72
71559;BME280;59382;43.852;25.952;2023-03-03T04:12:36;101499.31;;;7.69;62.61
71559;BME280;59382;43.852;25.952;2023-03-03T04:15:07;101475.16;;;7.61;62.85
71559;BME280;59382;43.852;25.952;2023-03-03T04:17:33;101491.56;;;7.74;62.64
71559;BME280;59382;43.852;25.952;2023-03-03T04:19:59;101491.22;;;7.77;63.09
71559;BME280;59382;43.852;25.952;2023-03-03T04:22:25;101486.50;;;7.79;62.46
71559;BME280;59382;43.852;25.952;2023-03-03T04:24:50;101449.00;;;7.55;62.59
71559;BME280;59382;43.852;25.952;2023-03-03T04:27:16;101491.22;;;7.77;62.68
71559;BME280;59382;43.852;25.952;2023-03-03T04:29:44;101489.88;;;7.81;62.53
71559;BME280;59382;43.852;25.952;2023-03-03T04:32:10;101479.16;;;7.73;62.53
71559;BME280;59382;43.852;25.952;2023-03-03T04:34:35;101495.53;;;7.86;62.82
71559;BME280;59382;43.852;25.952;2023-03-03T04:37:01;101497.72;;;7.90;62.99
71559;BME280;59382;43.852;25.952;2023-03-03T04:39:27;101482.09;;;7.86;62.87
71559;BME280;59382;43.852;25.952;2023-03-03T04:41:53;101490.78;;;7.96;62.70
71559;BME280;59382;43.852;25.952;2023-03-03T04:44:19;101494.84;;;7.92;62.43
71559;BME280;59382;43.852;25.952;2023-03-03T04:46:44;101459.06;;;7.61;62.71
71559;BME280;59382;43.852;25.952;2023-03-03T04:49:10;101499.94;;;7.87;62.86
71559;BME280;59382;43.852;25.952;2023-03-03T04:51:35;101491.72;;;7.80;62.68
71559;BME280;59382;43.852;25.952;2023-03-03T04:54:01;101485.22;;;7.67;62.99
71559;BME280;59382;43.852;25.952;2023-03-03T04:56:29;101493.56;;;7.80;63.00
71559;BME280;59382;43.852;25.952;2023-03-03T04:58:56;101447.81;;;7.57;62.93
71559;BME280;59382;43.852;25.952;2023-03-03T05:01:21;101490.50;;;7.91;62.91
71559;BME280;59382;43.852;25.952;2023-03-03T05:03:47;101496.53;;;7.93;62.62
71559;BME280;59382;43.852;25.952;2023-03-03T05:06:13;101482.78;;;7.88;62.73
71559;BME280;59382;43.852;25.952;2023-03-03T05:08:41;101492.50;;;7.89;62.51
71559;BME280;59382;43.852;25.952;2023-03-03T05:11:07;101481.16;;;7.79;62.67
71559;BME280;59382;43.852;25.952;2023-03-03T05:13:37;101494.56;;;7.87;62.64
71559;BME280;59382;43.852;25.952;2023-03-03T05:16:03;101492.56;;;7.81;62.67
71559;BME280;59382;43.852;25.952;2023-03-03T05:18:29;101499.59;;;7.82;62.95
71559;BME280;59382;43.852;25.952;2023-03-03T05:20:54;101476.47;;;7.73;62.92
71559;BME280;59382;43.852;25.952;2023-03-03T05:23:22;101481.66;;;7.74;62.76
71559;BME280;59382;43.852;25.952;2023-03-03T05:25:51;101482.63;;;7.81;63.06
71559;BME280;59382;43.852;25.952;2023-03-03T05:28:19;101473.44;;;7.76;62.94
71559;BME280;59382;43.852;25.952;2023-03-03T05:30:45;101491.38;;;7.83;63.07
71559;BME280;59382;43.852;25.952;2023-03-03T05:33:15;101491.19;;;7.85;62.98
71559;BME280;59382;43.852;25.952;2023-03-03T05:35:41;101483.31;;;7.83;63.00
71559;BME280;59382;43.852;25.952;2023-03-03T05:38:09;101498.19;;;7.94;63.12
71559;BME280;59382;43.852;25.952;2023-03-03T05:40:36;101497.84;;;7.97;62.96
71559;BME280;59382;43.852;25.952;2023-03-03T05:43:02;101484.44;;;7.89;62.80
71559;BME280;59382;43.852;25.952;2023-03-03T05:45:27;101497.84;;;7.97;63.09
71559;BME280;59382;43.852;25.952;2023-03-03T05:47:53;101501.50;;;8.04;62.79
71559;BME280;59382;43.852;25.952;2023-03-03T05:50:20;101503.84;;;8.07;63.03
71559;BME280;59382;43.852;25.952;2023-03-03T05:52:50;101498.47;;;8.07;62.92
71559;BME280;59382;43.852;25.952;2023-03-03T05:55:16;101486.56;;;8.01;62.88
71559;BME280;59382;43.852;25.952;2023-03-03T05:57:42;101492.41;;;8.05;62.96
71559;BME280;59382;43.852;25.952;2023-03-03T06:00:08;101490.22;;;8.08;63.11
71559;BME280;59382;43.852;25.952;2023-03-03T06:02:34;101494.06;;;8.14;62.81
71559;BME280;59382;43.852;25.952;2023-03-03T06:04:59;101512.50;;;8.25;62.90
71559;BME280;59382;43.852;25.952;2023-03-03T06:07:28;101495.34;;;8.26;62.90
71559;BME280;59382;43.852;25.952;2023-03-03T06:09:53;101501.06;;;8.31;62.69
71559;BME280;59382;43.852;25.952;2023-03-03T06:12:19;101501.38;;;8.36;62.71
71559;BME280;59382;43.852;25.952;2023-03-03T06:14:44;101504.69;;;8.38;62.68
71559;BME280;59382;43.852;25.952;2023-03-03T06:17:10;101511.03;;;8.45;62.39
71559;BME280;59382;43.852;25.952;2023-03-03T06:19:36;101501.28;;;8.44;62.60
71559;BME280;59382;43.852;25.952;2023-03-03T06:22:04;101499.28;;;8.46;62.73
71559;BME280;59382;43.852;25.952;2023-03-03T06:24:30;101507.63;;;8.51;62.65
71559;BME280;59382;43.852;25.952;2023-03-03T06:26:57;101515.41;;;8.46;62.65
71559;BME280;59382;43.852;25.952;2023-03-03T06:29:22;101488.66;;;8.22;62.83
71559;BME280;59382;43.852;25.952;2023-03-03T06:31:48;101489.88;;;8.12;62.99
71559;BME280;59382;43.852;25.952;2023-03-03T06:34:13;101514.50;;;8.31;63.18
71559;BME280;59382;43.852;25.952;2023-03-03T06:36:39;101514.81;;;8.36;63.20
71559;BME280;59382;43.852;25.952;2023-03-03T06:39:04;101498.91;;;8.27;63.22
71559;BME280;59382;43.852;25.952;2023-03-03T06:41:30;101515.44;;;8.38;63.24
71559;BME280;59382;43.852;25.952;2023-03-03T06:43:55;101517.38;;;8.30;63.31
71559;BME280;59382;43.852;25.952;2023-03-03T06:46:22;101519.91;;;8.23;63.58
71559;BME280;59382;43.852;25.952;2023-03-03T06:48:48;101498.97;;;8.11;63.76
71559;BME280;59382;43.852;25.952;2023-03-03T06:51:22;101527.66;;;8.18;63.86
71559;BME280;59382;43.852;25.952;2023-03-03T06:53:54;101518.25;;;8.22;63.89
71559;BME280;59382;43.852;25.952;2023-03-03T06:56:23;101518.84;;;8.32;64.11
71559;BME280;59382;43.852;25.952;2023-03-03T06:58:48;101517.06;;;8.47;63.48
71559;BME280;59382;43.852;25.952;2023-03-03T07:01:16;101522.22;;;8.57;63.27
71559;BME280;59382;43.852;25.952;2023-03-03T07:03:42;101516.94;;;8.63;63.15
71559;BME280;59382;43.852;25.952;2023-03-03T07:06:19;101496.47;;;8.62;63.17
71559;BME280;59382;43.852;25.952;2023-03-03T07:08:45;101521.88;;;8.82;62.78
71559;BME280;59382;43.852;25.952;2023-03-03T07:11:15;101512.78;;;8.83;63.24
71559;BME280;59382;43.852;25.952;2023-03-03T07:13:48;101490.66;;;8.73;62.56
71559;BME280;59382;43.852;25.952;2023-03-03T07:16:16;101502.84;;;8.84;62.56
71559;BME280;59382;43.852;25.952;2023-03-03T07:18:59;101499.97;;;8.85;62.79
71559;BME280;59382;43.852;25.952;2023-03-03T07:21:33;101509.00;;;8.92;63.07
71559;BME280;59382;43.852;25.952;2023-03-03T07:24:24;101494.59;;;8.85;62.85
71559;BME280;59382;43.852;25.952;2023-03-03T07:26:51;101508.28;;;8.98;62.91
71559;BME280;59382;43.852;25.952;2023-03-03T07:29:27;101503.34;;;9.02;62.84
71559;BME280;59382;43.852;25.952;2023-03-03T07:31:59;101498.13;;;9.00;62.80
71559;BME280;59382;43.852;25.952;2023-03-03T07:34:47;101502.09;;;8.90;62.69
71559;BME280;59382;43.852;25.952;2023-03-03T07:37:15;101498.38;;;8.76;63.32
71559;BME280;59382;43.852;25.952;2023-03-03T07:39:44;101500.03;;;8.77;63.22
71559;BME280;59382;43.852;25.952;2023-03-03T07:45:00;101482.88;;;8.78;62.85
71559;BME280;59382;43.852;25.952;2023-03-03T07:47:46;101495.78;;;8.83;63.31
71559;BME280;59382;43.852;25.952;2023-03-03T07:50:19;101500.81;;;8.63;63.38
71559;BME280;59382;43.852;25.952;2023-03-03T07:52:54;101494.47;;;8.56;63.80
71559;BME280;59382;43.852;25.952;2023-03-03T07:55:36;101501.53;;;8.57;64.04
71559;BME280;59382;43.852;25.952;2023-03-03T08:03:42;101468.88;;;8.60;63.58
71559;BME280;59382;43.852;25.952;2023-03-03T08:08:54;101453.56;;;8.83;63.34
71559;BME280;59382;43.852;25.952;2023-03-03T08:11:24;101485.53;;;9.15;63.09
71559;BME280;59382;43.852;25.952;2023-03-03T08:13:49;101480.16;;;9.15;62.90
71559;BME280;59382;43.852;25.952;2023-03-03T08:18:46;101471.94;;;8.94;63.25
71559;BME280;59382;43.852;25.952;2023-03-03T08:21:16;101469.56;;;8.99;63.31
71559;BME280;59382;43.852;25.952;2023-03-03T08:23:44;101462.97;;;9.02;63.07
71559;BME280;59382;43.852;25.952;2023-03-03T08:26:10;101471.41;;;8.99;63.04
71559;BME280;59382;43.852;25.952;2023-03-03T08:28:38;101481.19;;;9.00;63.30
71559;BME280;59382;43.852;25.952;2023-03-03T08:31:04;101473.91;;;9.00;63.38
71559;BME280;59382;43.852;25.952;2023-03-03T08:33:30;101478.66;;;8.98;63.19
71559;BME280;59382;43.852;25.952;2023-03-03T08:35:55;101458.59;;;8.86;63.25
71559;BME280;59382;43.852;25.952;2023-03-03T08:38:21;101447.34;;;8.83;63.44
71559;BME280;59382;43.852;25.952;2023-03-03T08:40:49;101463.06;;;9.08;63.06
71559;BME280;59382;43.852;25.952;2023-03-03T08:43:16;101439.88;;;9.07;62.85
71559;BME280;59382;43.852;25.952;2023-03-03T08:45:47;101461.97;;;9.46;62.31
71559;BME280;59382;43.852;25.952;2023-03-03T08:48:13;101454.34;;;9.64;62.28
71559;BME280;59382;43.852;25.952;2023-03-03T08:50:40;101444.50;;;9.71;61.89
71559;BME280;59382;43.852;25.952;2023-03-03T08:53:06;101436.69;;;9.76;61.70
71559;BME280;59382;43.852;25.952;2023-03-03T08:55:32;101466.66;;;10.02;61.33
71559;BME280;59382;43.852;25.952;2023-03-03T08:57:57;101437.28;;;10.08;61.03
71559;BME280;59382;43.852;25.952;2023-03-03T09:00:24;101448.09;;;10.29;60.78
71559;BME280;59382;43.852;25.952;2023-03-03T09:02:51;101448.09;;;10.29;60.85
71559;BME280;59382;43.852;25.952;2023-03-03T09:05:18;101449.75;;;10.30;60.61
71559;BME280;59382;43.852;25.952;2023-03-03T09:07:45;101449.91;;;10.43;60.81
71559;BME280;59382;43.852;25.952;2023-03-03T09:10:14;101445.03;;;10.53;60.45
71559;BME280;59382;43.852;25.952;2023-03-03T09:12:45;101435.13;;;10.60;60.35
71559;BME280;59382;43.852;25.952;2023-03-03T09:15:19;101424.84;;;10.70;59.92
71559;BME280;59382;43.852;25.952;2023-03-03T09:17:45;101438.97;;;10.72;59.45
71559;BME280;59382;43.852;25.952;2023-03-03T09:22:46;101417.34;;;10.65;59.48
71559;BME280;59382;43.852;25.952;2023-03-03T09:25:26;101433.19;;;10.75;59.58
71559;BME280;59382;43.852;25.952;2023-03-03T09:27:56;101416.47;;;10.65;59.65
71559;BME280;59382;43.852;25.952;2023-03-03T09:32:50;101429.34;;;10.63;59.64
71559;BME280;59382;43.852;25.952;2023-03-03T09:35:37;101423.06;;;10.56;59.97
71559;BME280;59382;43.852;25.952;2023-03-03T09:38:25;101441.44;;;10.67;60.00
71559;BME280;59382;43.852;25.952;2023-03-03T09:41:05;101427.38;;;10.78;59.64
71559;BME280;59382;43.852;25.952;2023-03-03T09:46:33;101438.72;;;10.94;59.55
71559;BME280;59382;43.852;25.952;2023-03-03T09:49:24;101428.38;;;10.98;59.30
71559;BME280;59382;43.852;25.952;2023-03-03T09:52:01;101418.38;;;10.92;59.61
71559;BME280;59382;43.852;25.952;2023-03-03T09:55:06;101398.72;;;10.77;59.22
71559;BME280;59382;43.852;25.952;2023-03-03T09:57:49;101431.09;;;10.98;59.18
71559;BME280;59382;43.852;25.952;2023-03-03T10:08:55;101428.16;;;10.72;59.88
71559;BME280;59382;43.852;25.952;2023-03-03T10:19:39;101405.69;;;10.65;59.68
71559;BME280;59382;43.852;25.952;2023-03-03T10:22:25;101405.69;;;10.65;59.85
71559;BME280;59382;43.852;25.952;2023-03-03T10:25:18;101411.75;;;10.46;60.20
71559;BME280;59382;43.852;25.952;2023-03-03T10:28:10;101405.97;;;10.28;60.41
71559;BME280;59382;43.852;25.952;2023-03-03T10:30:48;101399.69;;;10.21;60.49
71559;BME280;59382;43.852;25.952;2023-03-03T10:55:18;101346.34;;;10.44;60.54
71559;BME280;59382;43.852;25.952;2023-03-03T11:14:28;101310.50;;;10.50;60.63
71559;BME280;59382;43.852;25.952;2023-03-03T11:19:58;101320.19;;;10.72;60.36
71559;BME280;59382;43.852;25.952;2023-03-03T11:22:46;101320.66;;;10.82;60.14
71559;BME280;59382;43.852;25.952;2023-03-03T11:25:24;101312.41;;;10.90;59.67
71559;BME280;59382;43.852;25.952;2023-03-03T11:33:13;101306.16;;;10.83;59.48
71559;BME280;59382;43.852;25.952;2023-03-03T11:44:37;101287.72;;;10.93;59.41
71559;BME280;59382;43.852;25.952;2023-03-03T11:47:20;101286.72;;;11.00;59.43
71559;BME280;59382;43.852;25.952;2023-03-03T11:55:36;101293.09;;;11.33;58.80
71559;BME280;59382;43.852;25.952;2023-03-03T11:58:07;101295.78;;;11.27;59.12
71559;BME280;59382;43.852;25.952;2023-03-03T12:00:54;101300.13;;;11.28;58.82
71559;BME280;59382;43.852;25.952;2023-03-03T12:06:21;101293.31;;;11.32;59.13
71559;BME280;59382;43.852;25.952;2023-03-03T12:09:06;101286.00;;;11.26;58.83
71559;BME280;59382;43.852;25.952;2023-03-03T12:17:14;101292.38;;;11.12;59.54
71559;BME280;59382;43.852;25.952;2023-03-03T12:22:39;101284.53;;;11.23;59.39
71559;BME280;59382;43.852;25.952;2023-03-03T12:38:34;101286.66;;;10.87;59.62
71559;BME280;59382;43.852;25.952;2023-03-03T12:41:20;101279.97;;;10.83;59.82
71559;BME280;59382;43.852;25.952;2023-03-03T12:49:13;101273.28;;;10.73;59.81
71559;BME280;59382;43.852;25.952;2023-03-03T12:51:50;101282.00;;;10.75;60.30
71559;BME280;59382;43.852;25.952;2023-03-03T13:02:48;101287.88;;;10.51;60.58
71559;BME280;59382;43.852;25.952;2023-03-03T13:10:48;101280.94;;;10.42;60.70
71559;BME280;59382;43.852;25.952;2023-03-03T13:13:28;101269.94;;;10.37;60.45
71559;BME280;59382;43.852;25.952;2023-03-03T13:16:09;101287.25;;;10.49;60.43
71559;BME280;59382;43.852;25.952;2023-03-03T13:21:30;101290.22;;;10.60;60.47
71559;BME280;59382;43.852;25.952;2023-03-03T13:26:49;101265.84;;;10.47;60.23
71559;BME280;59382;43.852;25.952;2023-03-03T13:29:34;101253.88;;;10.29;60.34
71559;BME280;59382;43.852;25.952;2023-03-03T13:37:23;101282.44;;;10.44;60.76
71559;BME280;59382;43.852;25.952;2023-03-03T13:42:39;101272.84;;;10.42;60.56
71559;BME280;59382;43.852;25.952;2023-03-03T13:50:57;101260.16;;;10.36;61.04
71559;BME280;59382;43.852;25.952;2023-03-03T14:01:04;101268.91;;;10.38;60.75
71559;BME280;59382;43.852;25.952;2023-03-03T14:11:48;101260.84;;;10.17;61.53
71559;BME280;59382;43.852;25.952;2023-03-03T14:14:34;101262.53;;;10.18;61.66
71559;BME280;59382;43.852;25.952;2023-03-03T14:22:51;101251.88;;;10.10;61.52
71559;BME280;59382;43.852;25.952;2023-03-03T14:25:18;101270.22;;;10.21;61.11
71559;BME280;59382;43.852;25.952;2023-03-03T14:40:39;101261.63;;;10.11;61.83
71559;BME280;59382;43.852;25.952;2023-03-03T14:43:24;101259.06;;;10.02;62.23
71559;BME280;59382;43.852;25.952;2023-03-03T14:45:52;101263.78;;;10.00;62.35
71559;BME280;59382;43.852;25.952;2023-03-03T14:48:23;101257.75;;;9.98;62.46
71559;BME280;59382;43.852;25.952;2023-03-03T14:50:58;101245.44;;;9.89;62.44
71559;BME280;59382;43.852;25.952;2023-03-03T14:53:41;101235.88;;;9.87;62.38
71559;BME280;59382;43.852;25.952;2023-03-03T14:58:46;101230.66;;;9.79;62.58
71559;BME280;59382;43.852;25.952;2023-03-03T15:01:32;101257.75;;;9.98;62.47
71559;BME280;59382;43.852;25.952;2023-03-03T15:04:22;101247.75;;;9.92;62.53
71559;BME280;59382;43.852;25.952;2023-03-03T15:06:53;101231.47;;;9.79;62.40
71559;BME280;59382;43.852;25.952;2023-03-03T15:09:38;101245.69;;;9.94;62.49
71559;BME280;59382;43.852;25.952;2023-03-03T15:12:19;101249.25;;;9.95;62.38
71559;BME280;59382;43.852;25.952;2023-03-03T15:14:48;101238.38;;;9.88;62.47
71559;BME280;59382;43.852;25.952;2023-03-03T15:20:15;101252.50;;;9.90;62.33
71559;BME280;59382;43.852;25.952;2023-03-03T15:33:39;101251.03;;;9.88;62.46
71559;BME280;59382;43.852;25.952;2023-03-03T15:36:33;101263.59;;;9.81;63.16
71559;BME280;59382;43.852;25.952;2023-03-03T15:42:09;101257.53;;;9.72;63.40
71559;BME280;59382;43.852;25.952;2023-03-03T15:44:56;101267.03;;;9.68;63.75
71559;BME280;59382;43.852;25.952;2023-03-03T16:03:56;101272.41;;;9.47;64.62
71559;BME280;59382;43.852;25.952;2023-03-03T16:06:37;101241.19;;;9.17;64.19
71559;BME280;59382;43.852;25.952;2023-03-03T16:19:19;101298.38;;;9.19;66.12
71559;BME280;59382;43.852;25.952;2023-03-03T16:22:10;101288.75;;;9.10;66.38
71559;BME280;59382;43.852;25.952;2023-03-03T16:27:19;101273.88;;;9.14;66.09
71559;BME280;59382;43.852;25.952;2023-03-03T16:32:39;101300.03;;;9.20;66.99
71559;BME280;59382;43.852;25.952;2023-03-03T16:38:01;101295.78;;;9.11;67.47
71559;BME280;59382;43.852;25.952;2023-03-03T16:40:35;101306.47;;;9.19;66.53
71559;BME280;59382;43.852;25.952;2023-03-03T16:45:41;101298.84;;;9.08;66.86
71559;BME280;59382;43.852;25.952;2023-03-03T16:48:31;101312.41;;;9.15;67.13
71559;BME280;59382;43.852;25.952;2023-03-03T17:08:04;101325.50;;;9.03;68.20
71559;BME280;59382;43.852;25.952;2023-03-03T17:10:38;101321.41;;;9.07;68.06
71559;BME280;59382;43.852;25.952;2023-03-03T17:13:35;101329.38;;;9.15;68.29
71559;BME280;59382;43.852;25.952;2023-03-03T17:16:20;101311.03;;;9.04;68.05
71559;BME280;59382;43.852;25.952;2023-03-03T17:19:12;101331.44;;;9.13;68.54
71559;BME280;59382;43.852;25.952;2023-03-03T17:24:33;101325.97;;;9.07;68.41
71559;BME280;59382;43.852;25.952;2023-03-03T17:37:46;101320.84;;;8.97;68.50
71559;BME280;59382;43.852;25.952;2023-03-03T17:45:35;101341.63;;;9.03;68.92
71559;BME280;59382;43.852;25.952;2023-03-03T17:53:43;101341.09;;;8.93;69.44
71559;BME280;59382;43.852;25.952;2023-03-03T17:56:32;101357.91;;;8.95;69.08
71559;BME280;59382;43.852;25.952;2023-03-03T18:04:55;101349.47;;;8.98;69.53
71559;BME280;59382;43.852;25.952;2023-03-03T18:18:50;101363.72;;;8.84;69.45
71559;BME280;59382;43.852;25.952;2023-03-03T18:21:15;101362.91;;;8.84;69.37
71559;BME280;59382;43.852;25.952;2023-03-03T18:23:47;101340.97;;;8.72;69.44
71559;BME280;59382;43.852;25.952;2023-03-03T18:26:35;101365.88;;;8.89;69.59
71559;BME280;59382;43.852;25.952;2023-03-03T18:37:02;101369.97;;;8.85;69.61